Western, Nebraska
Current Conditions -  °F | °C
As of 7:15 AM on Wednesday 22 Oct 2014 (Local Time) from KBIE Reporting Station
Clear Clear  
Wind Chill: 54°   Ceiling: Unl
Heat Index: 54°   Visibility: 10mi
Dew Point: 45°   Wind: 10mph
Humidity: 71%   Direction: 160°SSE
Pressure: 30.08"   Gusts: 17mph
Location:  40.39°N, 97.2°W
Report Text: KBIE 221215Z AUTO 16009G15KT 10SM CLR 12/07 A3008 RMK AO2 T01220070
Loading
Personal Weather Stations






























Interactive Weather Map
Tropical Storm Tracking
New forecast layout! Learn more

10-Day Weather Forecast

Advertisements
Track Severe Weather on mobile